sensor_id;sensor_type;location;lat;lon;timestamp;P1;durP1;ratioP1;P2;durP2;ratioP2
27889;SDS011;15238;49.082;9.102;2022-08-07T00:01:51;0.57;;;0.28;;
27889;SDS011;15238;49.082;9.102;2022-08-07T00:03:51;0.40;;;0.20;;
27889;SDS011;15238;49.082;9.102;2022-08-07T00:05:52;1.77;;;0.40;;
27889;SDS011;15238;49.082;9.102;2022-08-07T00:07:53;1.02;;;0.30;;
27889;SDS011;15238;49.082;9.102;2022-08-07T00:09:54;0.38;;;0.10;;
27889;SDS011;15238;49.082;9.102;2022-08-07T00:11:55;4.30;;;0.30;;
27889;SDS011;15238;49.082;9.102;2022-08-07T00:13:55;1.83;;;0.10;;
27889;SDS011;15238;49.082;9.102;2022-08-07T00:15:57;1.13;;;0.40;;
27889;SDS011;15238;49.082;9.102;2022-08-07T00:17:57;2.55;;;0.40;;
27889;SDS011;15238;49.082;9.102;2022-08-07T00:19:58;1.23;;;0.20;;
27889;SDS011;15238;49.082;9.102;2022-08-07T00:21:58;4.13;;;0.25;;
27889;SDS011;15238;49.082;9.102;2022-08-07T00:23:59;0.32;;;0.20;;
27889;SDS011;15238;49.082;9.102;2022-08-07T00:26:00;0.45;;;0.20;;
27889;SDS011;15238;49.082;9.102;2022-08-07T00:28:03;1.30;;;0.20;;
27889;SDS011;15238;49.082;9.102;2022-08-07T00:30:04;1.75;;;0.43;;
27889;SDS011;15238;49.082;9.102;2022-08-07T00:32:05;3.10;;;0.25;;
27889;SDS011;15238;49.082;9.102;2022-08-07T00:34:06;3.45;;;0.30;;
27889;SDS011;15238;49.082;9.102;2022-08-07T00:36:06;4.68;;;0.40;;
27889;SDS011;15238;49.082;9.102;2022-08-07T00:38:08;4.57;;;0.32;;
27889;SDS011;15238;49.082;9.102;2022-08-07T00:40:08;0.32;;;0.20;;
27889;SDS011;15238;49.082;9.102;2022-08-07T00:42:09;0.80;;;0.30;;
27889;SDS011;15238;49.082;9.102;2022-08-07T00:44:10;2.83;;;0.20;;
27889;SDS011;15238;49.082;9.102;2022-08-07T00:46:10;0.52;;;0.20;;
27889;SDS011;15238;49.082;9.102;2022-08-07T00:48:11;1.33;;;0.30;;
27889;SDS011;15238;49.082;9.102;2022-08-07T00:50:11;2.83;;;0.40;;
27889;SDS011;15238;49.082;9.102;2022-08-07T00:52:12;3.08;;;0.35;;
27889;SDS011;15238;49.082;9.102;2022-08-07T00:54:12;2.33;;;0.28;;
27889;SDS011;15238;49.082;9.102;2022-08-07T00:56:14;1.13;;;0.38;;
27889;SDS011;15238;49.082;9.102;2022-08-07T00:58:14;2.05;;;0.20;;
27889;SDS011;15238;49.082;9.102;2022-08-07T01:00:17;2.20;;;0.20;;
27889;SDS011;15238;49.082;9.102;2022-08-07T01:02:18;2.20;;;0.22;;
27889;SDS011;15238;49.082;9.102;2022-08-07T01:04:21;2.90;;;0.40;;
27889;SDS011;15238;49.082;9.102;2022-08-07T01:06:21;2.65;;;0.30;;
27889;SDS011;15238;49.082;9.102;2022-08-07T01:08:22;1.10;;;0.13;;
27889;SDS011;15238;49.082;9.102;2022-08-07T01:10:22;0.60;;;0.10;;
27889;SDS011;15238;49.082;9.102;2022-08-07T01:12:23;1.45;;;0.45;;
27889;SDS011;15238;49.082;9.102;2022-08-07T01:14:24;1.10;;;0.22;;
27889;SDS011;15238;49.082;9.102;2022-08-07T01:16:25;2.65;;;0.43;;
27889;SDS011;15238;49.082;9.102;2022-08-07T01:18:26;2.10;;;0.20;;
27889;SDS011;15238;49.082;9.102;2022-08-07T01:20:30;3.83;;;0.30;;
27889;SDS011;15238;49.082;9.102;2022-08-07T01:22:36;1.52;;;0.20;;
27889;SDS011;15238;49.082;9.102;2022-08-07T01:24:38;0.80;;;0.25;;
27889;SDS011;15238;49.082;9.102;2022-08-07T01:26:40;1.23;;;0.32;;
27889;SDS011;15238;49.082;9.102;2022-08-07T01:28:41;0.30;;;0.20;;
27889;SDS011;15238;49.082;9.102;2022-08-07T01:30:48;5.57;;;0.30;;
27889;SDS011;15238;49.082;9.102;2022-08-07T01:32:49;0.88;;;0.22;;
27889;SDS011;15238;49.082;9.102;2022-08-07T01:34:50;0.73;;;0.20;;
27889;SDS011;15238;49.082;9.102;2022-08-07T01:36:51;1.65;;;0.38;;
27889;SDS011;15238;49.082;9.102;2022-08-07T01:38:52;0.55;;;0.25;;
27889;SDS011;15238;49.082;9.102;2022-08-07T01:40:59;2.97;;;0.40;;
27889;SDS011;15238;49.082;9.102;2022-08-07T01:43:01;1.03;;;0.30;;
27889;SDS011;15238;49.082;9.102;2022-08-07T01:45:05;1.10;;;0.10;;
27889;SDS011;15238;49.082;9.102;2022-08-07T01:47:06;1.75;;;0.45;;
27889;SDS011;15238;49.082;9.102;2022-08-07T01:49:09;2.08;;;0.25;;
27889;SDS011;15238;49.082;9.102;2022-08-07T01:51:11;2.03;;;0.10;;
27889;SDS011;15238;49.082;9.102;2022-08-07T01:53:32;0.95;;;0.40;;
27889;SDS011;15238;49.082;9.102;2022-08-07T01:55:49;1.35;;;0.30;;
27889;SDS011;15238;49.082;9.102;2022-08-07T01:57:54;0.52;;;0.13;;
27889;SDS011;15238;49.082;9.102;2022-08-07T02:00:03;1.38;;;0.25;;
27889;SDS011;15238;49.082;9.102;2022-08-07T02:02:07;1.80;;;0.40;;
27889;SDS011;15238;49.082;9.102;2022-08-07T02:04:15;2.47;;;0.40;;
27889;SDS011;15238;49.082;9.102;2022-08-07T02:06:23;1.08;;;0.43;;
27889;SDS011;15238;49.082;9.102;2022-08-07T02:08:25;1.85;;;0.20;;
27889;SDS011;15238;49.082;9.102;2022-08-07T02:10:28;0.50;;;0.32;;
27889;SDS011;15238;49.082;9.102;2022-08-07T02:12:32;1.77;;;0.20;;
27889;SDS011;15238;49.082;9.102;2022-08-07T02:14:35;1.55;;;0.30;;
27889;SDS011;15238;49.082;9.102;2022-08-07T02:16:37;2.15;;;0.25;;
27889;SDS011;15238;49.082;9.102;2022-08-07T02:18:39;1.38;;;0.20;;
27889;SDS011;15238;49.082;9.102;2022-08-07T02:20:41;3.13;;;0.20;;
27889;SDS011;15238;49.082;9.102;2022-08-07T02:22:44;0.55;;;0.20;;
27889;SDS011;15238;49.082;9.102;2022-08-07T02:24:46;1.77;;;0.20;;
27889;SDS011;15238;49.082;9.102;2022-08-07T02:26:48;1.17;;;0.50;;
27889;SDS011;15238;49.082;9.102;2022-08-07T02:28:49;0.40;;;0.22;;
27889;SDS011;15238;49.082;9.102;2022-08-07T02:30:51;3.28;;;0.50;;
27889;SDS011;15238;49.082;9.102;2022-08-07T02:32:54;3.40;;;0.30;;
27889;SDS011;15238;49.082;9.102;2022-08-07T02:34:56;1.08;;;0.30;;
27889;SDS011;15238;49.082;9.102;2022-08-07T02:36:58;0.47;;;0.17;;
27889;SDS011;15238;49.082;9.102;2022-08-07T02:39:03;1.40;;;0.35;;
27889;SDS011;15238;49.082;9.102;2022-08-07T02:41:05;4.80;;;0.20;;
27889;SDS011;15238;49.082;9.102;2022-08-07T02:43:06;7.85;;;0.55;;
27889;SDS011;15238;49.082;9.102;2022-08-07T02:45:07;3.63;;;0.22;;
27889;SDS011;15238;49.082;9.102;2022-08-07T02:47:11;3.40;;;0.30;;
27889;SDS011;15238;49.082;9.102;2022-08-07T02:49:14;0.17;;;0.10;;
27889;SDS011;15238;49.082;9.102;2022-08-07T02:51:15;0.90;;;0.25;;
27889;SDS011;15238;49.082;9.102;2022-08-07T02:53:20;0.85;;;0.25;;
27889;SDS011;15238;49.082;9.102;2022-08-07T02:55:32;2.20;;;0.28;;
27889;SDS011;15238;49.082;9.102;2022-08-07T02:57:36;0.50;;;0.20;;
27889;SDS011;15238;49.082;9.102;2022-08-07T02:59:40;2.30;;;0.35;;
27889;SDS011;15238;49.082;9.102;2022-08-07T03:01:47;0.68;;;0.20;;
27889;SDS011;15238;49.082;9.102;2022-08-07T03:03:48;4.47;;;0.63;;
27889;SDS011;15238;49.082;9.102;2022-08-07T03:05:50;3.80;;;0.40;;
27889;SDS011;15238;49.082;9.102;2022-08-07T03:07:52;2.80;;;0.32;;
27889;SDS011;15238;49.082;9.102;2022-08-07T03:09:54;2.15;;;0.15;;
27889;SDS011;15238;49.082;9.102;2022-08-07T03:11:55;1.17;;;0.17;;
27889;SDS011;15238;49.082;9.102;2022-08-07T03:13:57;0.70;;;0.20;;
27889;SDS011;15238;49.082;9.102;2022-08-07T03:15:58;2.22;;;0.25;;
27889;SDS011;15238;49.082;9.102;2022-08-07T03:17:59;1.92;;;0.40;;
27889;SDS011;15238;49.082;9.102;2022-08-07T03:20:00;3.50;;;0.20;;
27889;SDS011;15238;49.082;9.102;2022-08-07T03:22:02;1.50;;;0.43;;
27889;SDS011;15238;49.082;9.102;2022-08-07T03:24:04;4.90;;;0.40;;
27889;SDS011;15238;49.082;9.102;2022-08-07T03:26:06;3.58;;;0.30;;
27889;SDS011;15238;49.082;9.102;2022-08-07T03:28:09;1.05;;;0.10;;
27889;SDS011;15238;49.082;9.102;2022-08-07T03:30:15;4.05;;;0.40;;
27889;SDS011;15238;49.082;9.102;2022-08-07T03:32:18;0.65;;;0.25;;
27889;SDS011;15238;49.082;9.102;2022-08-07T03:34:24;2.83;;;0.20;;
27889;SDS011;15238;49.082;9.102;2022-08-07T03:36:27;2.83;;;1.15;;
27889;SDS011;15238;49.082;9.102;2022-08-07T03:38:28;0.47;;;0.22;;
27889;SDS011;15238;49.082;9.102;2022-08-07T03:40:30;0.55;;;0.20;;
27889;SDS011;15238;49.082;9.102;2022-08-07T03:42:31;1.17;;;0.15;;
27889;SDS011;15238;49.082;9.102;2022-08-07T03:44:34;1.30;;;0.25;;
27889;SDS011;15238;49.082;9.102;2022-08-07T03:46:36;0.60;;;0.20;;
27889;SDS011;15238;49.082;9.102;2022-08-07T03:48:39;0.20;;;0.20;;
27889;SDS011;15238;49.082;9.102;2022-08-07T03:50:40;0.70;;;0.20;;
27889;SDS011;15238;49.082;9.102;2022-08-07T03:52:42;1.30;;;0.30;;
27889;SDS011;15238;49.082;9.102;2022-08-07T03:54:43;1.02;;;0.40;;
27889;SDS011;15238;49.082;9.102;2022-08-07T03:56:44;1.23;;;0.30;;
27889;SDS011;15238;49.082;9.102;2022-08-07T03:58:45;0.88;;;0.30;;
27889;SDS011;15238;49.082;9.102;2022-08-07T04:00:48;0.47;;;0.13;;
27889;SDS011;15238;49.082;9.102;2022-08-07T04:02:51;1.25;;;0.20;;
27889;SDS011;15238;49.082;9.102;2022-08-07T04:04:52;0.80;;;0.20;;
27889;SDS011;15238;49.082;9.102;2022-08-07T04:06:52;0.70;;;0.30;;
27889;SDS011;15238;49.082;9.102;2022-08-07T04:08:53;0.63;;;0.30;;
27889;SDS011;15238;49.082;9.102;2022-08-07T04:10:54;0.30;;;0.20;;
27889;SDS011;15238;49.082;9.102;2022-08-07T04:12:56;1.27;;;0.30;;
27889;SDS011;15238;49.082;9.102;2022-08-07T04:14:57;1.45;;;0.30;;
27889;SDS011;15238;49.082;9.102;2022-08-07T04:16:58;0.85;;;0.20;;
27889;SDS011;15238;49.082;9.102;2022-08-07T04:18:59;0.65;;;0.40;;
27889;SDS011;15238;49.082;9.102;2022-08-07T04:21:00;2.42;;;0.30;;
27889;SDS011;15238;49.082;9.102;2022-08-07T04:23:01;0.47;;;0.20;;
27889;SDS011;15238;49.082;9.102;2022-08-07T04:25:02;2.17;;;0.10;;
27889;SDS011;15238;49.082;9.102;2022-08-07T04:27:03;1.25;;;0.30;;
27889;SDS011;15238;49.082;9.102;2022-08-07T04:29:05;1.17;;;0.13;;
27889;SDS011;15238;49.082;9.102;2022-08-07T04:31:09;0.55;;;0.22;;
27889;SDS011;15238;49.082;9.102;2022-08-07T04:33:10;3.17;;;0.22;;
27889;SDS011;15238;49.082;9.102;2022-08-07T04:35:12;1.55;;;0.40;;
27889;SDS011;15238;49.082;9.102;2022-08-07T04:37:13;0.60;;;0.30;;
27889;SDS011;15238;49.082;9.102;2022-08-07T04:39:13;0.90;;;0.40;;
27889;SDS011;15238;49.082;9.102;2022-08-07T04:41:14;1.75;;;0.30;;
27889;SDS011;15238;49.082;9.102;2022-08-07T04:43:15;2.95;;;0.30;;
27889;SDS011;15238;49.082;9.102;2022-08-07T04:45:18;0.80;;;0.30;;
27889;SDS011;15238;49.082;9.102;2022-08-07T04:47:21;0.50;;;0.35;;
27889;SDS011;15238;49.082;9.102;2022-08-07T04:56:46;5.70;;;0.63;;
27889;SDS011;15238;49.082;9.102;2022-08-07T04:59:01;0.40;;;0.20;;
27889;SDS011;15238;49.082;9.102;2022-08-07T05:01:20;2.65;;;0.45;;
27889;SDS011;15238;49.082;9.102;2022-08-07T05:03:28;2.45;;;1.05;;
27889;SDS011;15238;49.082;9.102;2022-08-07T05:05:43;1.13;;;0.63;;
27889;SDS011;15238;49.082;9.102;2022-08-07T05:09:57;2.83;;;0.40;;
27889;SDS011;15238;49.082;9.102;2022-08-07T05:12:02;0.75;;;0.50;;
27889;SDS011;15238;49.082;9.102;2022-08-07T05:14:10;1.52;;;0.40;;
27889;SDS011;15238;49.082;9.102;2022-08-07T05:16:13;2.05;;;0.60;;
27889;SDS011;15238;49.082;9.102;2022-08-07T05:18:20;1.23;;;0.50;;
27889;SDS011;15238;49.082;9.102;2022-08-07T05:20:58;2.72;;;0.70;;
27889;SDS011;15238;49.082;9.102;2022-08-07T05:22:55;1.02;;;0.40;;
27889;SDS011;15238;49.082;9.102;2022-08-07T05:25:00;2.25;;;0.50;;
27889;SDS011;15238;49.082;9.102;2022-08-07T05:27:01;1.40;;;0.50;;
27889;SDS011;15238;49.082;9.102;2022-08-07T05:29:03;0.82;;;0.30;;
27889;SDS011;15238;49.082;9.102;2022-08-07T05:31:06;3.67;;;0.43;;
27889;SDS011;15238;49.082;9.102;2022-08-07T05:33:10;2.42;;;0.40;;
27889;SDS011;15238;49.082;9.102;2022-08-07T05:35:12;1.20;;;0.47;;
27889;SDS011;15238;49.082;9.102;2022-08-07T05:37:13;3.28;;;0.60;;
27889;SDS011;15238;49.082;9.102;2022-08-07T05:39:15;1.60;;;0.30;;
27889;SDS011;15238;49.082;9.102;2022-08-07T05:41:18;0.43;;;0.30;;
27889;SDS011;15238;49.082;9.102;2022-08-07T05:43:19;0.50;;;0.40;;
27889;SDS011;15238;49.082;9.102;2022-08-07T05:45:20;2.10;;;0.60;;
27889;SDS011;15238;49.082;9.102;2022-08-07T05:47:22;2.25;;;0.50;;
27889;SDS011;15238;49.082;9.102;2022-08-07T05:49:23;0.75;;;0.43;;
27889;SDS011;15238;49.082;9.102;2022-08-07T05:51:25;3.53;;;0.40;;
27889;SDS011;15238;49.082;9.102;2022-08-07T05:53:26;0.63;;;0.28;;
27889;SDS011;15238;49.082;9.102;2022-08-07T05:55:27;3.25;;;0.50;;
27889;SDS011;15238;49.082;9.102;2022-08-07T05:57:28;1.10;;;0.35;;
27889;SDS011;15238;49.082;9.102;2022-08-07T05:59:30;3.25;;;0.30;;
27889;SDS011;15238;49.082;9.102;2022-08-07T06:01:35;4.28;;;0.35;;
27889;SDS011;15238;49.082;9.102;2022-08-07T06:03:38;1.30;;;0.40;;
27889;SDS011;15238;49.082;9.102;2022-08-07T06:05:41;1.52;;;0.30;;
27889;SDS011;15238;49.082;9.102;2022-08-07T06:07:42;4.35;;;0.45;;
27889;SDS011;15238;49.082;9.102;2022-08-07T06:09:43;3.08;;;0.50;;
27889;SDS011;15238;49.082;9.102;2022-08-07T06:11:44;2.30;;;0.82;;
27889;SDS011;15238;49.082;9.102;2022-08-07T06:13:45;1.52;;;0.30;;
27889;SDS011;15238;49.082;9.102;2022-08-07T06:15:47;2.60;;;0.43;;
27889;SDS011;15238;49.082;9.102;2022-08-07T06:17:48;2.15;;;0.32;;
27889;SDS011;15238;49.082;9.102;2022-08-07T06:19:50;0.47;;;0.30;;
27889;SDS011;15238;49.082;9.102;2022-08-07T06:21:51;1.30;;;0.40;;
27889;SDS011;15238;49.082;9.102;2022-08-07T06:23:52;1.20;;;0.68;;
27889;SDS011;15238;49.082;9.102;2022-08-07T06:25:53;0.75;;;0.40;;
27889;SDS011;15238;49.082;9.102;2022-08-07T06:28:01;1.05;;;0.50;;
27889;SDS011;15238;49.082;9.102;2022-08-07T06:30:06;2.85;;;0.50;;
27889;SDS011;15238;49.082;9.102;2022-08-07T06:32:07;1.63;;;0.43;;
27889;SDS011;15238;49.082;9.102;2022-08-07T06:34:07;1.63;;;0.57;;
27889;SDS011;15238;49.082;9.102;2022-08-07T06:36:08;6.22;;;1.17;;
27889;SDS011;15238;49.082;9.102;2022-08-07T06:38:09;0.93;;;0.30;;
27889;SDS011;15238;49.082;9.102;2022-08-07T06:40:10;2.60;;;0.70;;
27889;SDS011;15238;49.082;9.102;2022-08-07T06:42:18;2.65;;;0.50;;
27889;SDS011;15238;49.082;9.102;2022-08-07T06:44:20;2.80;;;0.52;;
27889;SDS011;15238;49.082;9.102;2022-08-07T06:46:22;0.70;;;0.40;;
27889;SDS011;15238;49.082;9.102;2022-08-07T06:48:23;0.98;;;0.43;;
27889;SDS011;15238;49.082;9.102;2022-08-07T06:50:23;5.07;;;0.80;;
27889;SDS011;15238;49.082;9.102;2022-08-07T06:52:26;1.67;;;0.75;;
27889;SDS011;15238;49.082;9.102;2022-08-07T06:54:32;2.17;;;0.90;;
27889;SDS011;15238;49.082;9.102;2022-08-07T06:56:33;2.95;;;0.70;;
27889;SDS011;15238;49.082;9.102;2022-08-07T06:58:46;1.70;;;0.60;;
27889;SDS011;15238;49.082;9.102;2022-08-07T07:00:48;2.35;;;0.90;;
27889;SDS011;15238;49.082;9.102;2022-08-07T07:02:50;3.40;;;0.70;;
27889;SDS011;15238;49.082;9.102;2022-08-07T07:04:51;2.88;;;0.80;;
27889;SDS011;15238;49.082;9.102;2022-08-07T07:06:52;2.45;;;0.80;;
27889;SDS011;15238;49.082;9.102;2022-08-07T07:08:53;2.38;;;0.85;;
27889;SDS011;15238;49.082;9.102;2022-08-07T07:10:54;1.10;;;0.50;;
27889;SDS011;15238;49.082;9.102;2022-08-07T07:12:56;1.67;;;0.70;;
27889;SDS011;15238;49.082;9.102;2022-08-07T07:15:06;1.38;;;0.60;;
27889;SDS011;15238;49.082;9.102;2022-08-07T07:17:14;2.28;;;0.88;;
27889;SDS011;15238;49.082;9.102;2022-08-07T07:19:31;1.33;;;0.70;;
27889;SDS011;15238;49.082;9.102;2022-08-07T07:21:37;5.45;;;0.90;;
27889;SDS011;15238;49.082;9.102;2022-08-07T07:23:41;2.67;;;0.85;;
27889;SDS011;15238;49.082;9.102;2022-08-07T07:25:42;1.73;;;0.90;;
27889;SDS011;15238;49.082;9.102;2022-08-07T07:28:00;2.75;;;1.50;;
27889;SDS011;15238;49.082;9.102;2022-08-07T07:30:06;0.90;;;0.80;;
27889;SDS011;15238;49.082;9.102;2022-08-07T07:32:08;2.65;;;1.13;;
27889;SDS011;15238;49.082;9.102;2022-08-07T07:34:12;1.50;;;1.15;;
27889;SDS011;15238;49.082;9.102;2022-08-07T07:36:16;2.45;;;1.13;;
27889;SDS011;15238;49.082;9.102;2022-08-07T07:38:19;1.42;;;0.80;;
27889;SDS011;15238;49.082;9.102;2022-08-07T07:40:22;1.25;;;0.98;;
27889;SDS011;15238;49.082;9.102;2022-08-07T07:42:24;2.72;;;0.90;;
27889;SDS011;15238;49.082;9.102;2022-08-07T07:44:26;1.02;;;0.90;;
27889;SDS011;15238;49.082;9.102;2022-08-07T07:46:31;3.25;;;1.00;;
27889;SDS011;15238;49.082;9.102;2022-08-07T07:48:34;4.45;;;1.15;;
27889;SDS011;15238;49.082;9.102;2022-08-07T07:50:36;2.78;;;0.82;;
27889;SDS011;15238;49.082;9.102;2022-08-07T07:52:38;1.73;;;1.00;;
27889;SDS011;15238;49.082;9.102;2022-08-07T07:54:42;1.38;;;0.88;;
27889;SDS011;15238;49.082;9.102;2022-08-07T07:56:46;2.38;;;0.95;;
27889;SDS011;15238;49.082;9.102;2022-08-07T07:58:49;1.65;;;0.85;;
27889;SDS011;15238;49.082;9.102;2022-08-07T08:00:51;1.63;;;0.75;;
27889;SDS011;15238;49.082;9.102;2022-08-07T08:02:55;4.55;;;1.08;;
27889;SDS011;15238;49.082;9.102;2022-08-07T08:04:58;1.60;;;1.00;;
27889;SDS011;15238;49.082;9.102;2022-08-07T08:07:03;1.50;;;0.75;;
27889;SDS011;15238;49.082;9.102;2022-08-07T08:09:11;1.27;;;0.70;;
27889;SDS011;15238;49.082;9.102;2022-08-07T08:11:13;4.63;;;1.05;;
27889;SDS011;15238;49.082;9.102;2022-08-07T08:13:14;3.90;;;0.60;;
27889;SDS011;15238;49.082;9.102;2022-08-07T08:15:15;1.63;;;0.70;;
27889;SDS011;15238;49.082;9.102;2022-08-07T08:17:16;2.05;;;0.68;;
27889;SDS011;15238;49.082;9.102;2022-08-07T08:19:22;1.45;;;0.70;;
27889;SDS011;15238;49.082;9.102;2022-08-07T08:21:26;1.40;;;0.70;;
27889;SDS011;15238;49.082;9.102;2022-08-07T08:23:46;2.97;;;0.90;;
27889;SDS011;15238;49.082;9.102;2022-08-07T08:26:05;2.80;;;0.50;;
27889;SDS011;15238;49.082;9.102;2022-08-07T08:28:25;2.70;;;0.60;;
27889;SDS011;15238;49.082;9.102;2022-08-07T08:30:28;1.73;;;0.60;;
27889;SDS011;15238;49.082;9.102;2022-08-07T08:32:30;1.75;;;0.68;;
27889;SDS011;15238;49.082;9.102;2022-08-07T08:34:32;3.03;;;0.55;;
27889;SDS011;15238;49.082;9.102;2022-08-07T08:36:37;1.10;;;0.60;;
27889;SDS011;15238;49.082;9.102;2022-08-07T08:38:39;2.15;;;0.40;;
27889;SDS011;15238;49.082;9.102;2022-08-07T08:40:45;1.48;;;0.52;;
27889;SDS011;15238;49.082;9.102;2022-08-07T08:45:39;2.70;;;0.40;;
27889;SDS011;15238;49.082;9.102;2022-08-07T08:48:07;4.82;;;0.60;;
27889;SDS011;15238;49.082;9.102;2022-08-07T08:50:30;1.23;;;0.43;;
27889;SDS011;15238;49.082;9.102;2022-08-07T08:52:36;3.65;;;0.63;;
27889;SDS011;15238;49.082;9.102;2022-08-07T08:54:49;1.90;;;0.47;;
27889;SDS011;15238;49.082;9.102;2022-08-07T08:57:25;1.08;;;0.70;;
27889;SDS011;15238;49.082;9.102;2022-08-07T08:59:45;1.40;;;0.40;;
27889;SDS011;15238;49.082;9.102;2022-08-07T09:01:55;4.00;;;0.68;;
27889;SDS011;15238;49.082;9.102;2022-08-07T09:06:08;1.60;;;0.38;;
27889;SDS011;15238;49.082;9.102;2022-08-07T09:08:22;0.88;;;0.68;;
27889;SDS011;15238;49.082;9.102;2022-08-07T09:11:18;0.32;;;0.30;;
27889;SDS011;15238;49.082;9.102;2022-08-07T09:18:06;1.00;;;0.30;;
27889;SDS011;15238;49.082;9.102;2022-08-07T09:20:28;1.00;;;0.47;;
27889;SDS011;15238;49.082;9.102;2022-08-07T09:22:58;0.80;;;0.40;;
27889;SDS011;15238;49.082;9.102;2022-08-07T09:27:56;1.83;;;0.40;;
27889;SDS011;15238;49.082;9.102;2022-08-07T09:30:04;0.40;;;0.38;;
27889;SDS011;15238;49.082;9.102;2022-08-07T09:34:24;2.38;;;0.40;;
27889;SDS011;15238;49.082;9.102;2022-08-07T09:36:35;1.58;;;0.40;;
27889;SDS011;15238;49.082;9.102;2022-08-07T09:38:52;1.73;;;0.45;;
27889;SDS011;15238;49.082;9.102;2022-08-07T09:41:18;2.00;;;0.38;;
27889;SDS011;15238;49.082;9.102;2022-08-07T09:43:33;3.22;;;0.57;;
27889;SDS011;15238;49.082;9.102;2022-08-07T09:48:45;1.00;;;0.20;;
27889;SDS011;15238;49.082;9.102;2022-08-07T09:50:56;0.70;;;0.35;;
27889;SDS011;15238;49.082;9.102;2022-08-07T09:53:07;0.82;;;0.40;;
27889;SDS011;15238;49.082;9.102;2022-08-07T10:00:12;0.57;;;0.43;;
27889;SDS011;15238;49.082;9.102;2022-08-07T10:02:44;1.42;;;0.40;;
27889;SDS011;15238;49.082;9.102;2022-08-07T10:09:35;0.32;;;0.20;;
27889;SDS011;15238;49.082;9.102;2022-08-07T10:26:24;1.65;;;0.20;;
27889;SDS011;15238;49.082;9.102;2022-08-07T10:31:51;0.98;;;0.35;;
27889;SDS011;15238;49.082;9.102;2022-08-07T10:40:32;1.17;;;0.32;;
27889;SDS011;15238;49.082;9.102;2022-08-07T10:49:33;3.00;;;0.52;;
27889;SDS011;15238;49.082;9.102;2022-08-07T10:56:17;0.15;;;0.15;;
27889;SDS011;15238;49.082;9.102;2022-08-07T10:58:42;1.45;;;0.35;;
27889;SDS011;15238;49.082;9.102;2022-08-07T11:03:19;0.88;;;0.30;;
27889;SDS011;15238;49.082;9.102;2022-08-07T11:08:10;1.27;;;0.40;;
27889;SDS011;15238;49.082;9.102;2022-08-07T11:10:32;0.73;;;0.25;;
27889;SDS011;15238;49.082;9.102;2022-08-07T11:12:45;0.50;;;0.30;;
27889;SDS011;15238;49.082;9.102;2022-08-07T11:15:10;0.50;;;0.32;;
27889;SDS011;15238;49.082;9.102;2022-08-07T11:17:18;2.35;;;0.35;;
27889;SDS011;15238;49.082;9.102;2022-08-07T11:21:44;0.47;;;0.20;;
27889;SDS011;15238;49.082;9.102;2022-08-07T11:26:12;0.75;;;0.22;;
27889;SDS011;15238;49.082;9.102;2022-08-07T11:28:24;1.08;;;0.20;;
27889;SDS011;15238;49.082;9.102;2022-08-07T11:33:05;0.20;;;0.10;;
27889;SDS011;15238;49.082;9.102;2022-08-07T11:35:08;1.90;;;0.28;;
27889;SDS011;15238;49.082;9.102;2022-08-07T11:44:48;3.05;;;0.43;;
27889;SDS011;15238;49.082;9.102;2022-08-07T11:47:00;1.05;;;0.50;;
27889;SDS011;15238;49.082;9.102;2022-08-07T11:52:07;0.88;;;0.45;;
27889;SDS011;15238;49.082;9.102;2022-08-07T12:08:36;1.00;;;0.40;;
27889;SDS011;15238;49.082;9.102;2022-08-07T12:10:44;0.40;;;0.20;;
27889;SDS011;15238;49.082;9.102;2022-08-07T12:15:19;0.60;;;0.35;;
27889;SDS011;15238;49.082;9.102;2022-08-07T12:17:23;1.15;;;0.40;;
27889;SDS011;15238;49.082;9.102;2022-08-07T12:19:59;1.90;;;0.35;;
27889;SDS011;15238;49.082;9.102;2022-08-07T12:22:16;4.85;;;0.30;;
27889;SDS011;15238;49.082;9.102;2022-08-07T12:27:19;2.25;;;0.30;;
27889;SDS011;15238;49.082;9.102;2022-08-07T12:29:34;4.22;;;0.60;;
27889;SDS011;15238;49.082;9.102;2022-08-07T12:34:05;0.15;;;0.15;;
27889;SDS011;15238;49.082;9.102;2022-08-07T12:36:07;0.43;;;0.28;;
27889;SDS011;15238;49.082;9.102;2022-08-07T12:38:10;1.45;;;0.17;;
27889;SDS011;15238;49.082;9.102;2022-08-07T12:40:12;1.38;;;0.30;;
27889;SDS011;15238;49.082;9.102;2022-08-07T12:42:19;0.35;;;0.30;;
27889;SDS011;15238;49.082;9.102;2022-08-07T12:44:23;1.35;;;0.52;;
27889;SDS011;15238;49.082;9.102;2022-08-07T12:46:31;0.50;;;0.30;;
27889;SDS011;15238;49.082;9.102;2022-08-07T12:48:57;0.57;;;0.32;;
27889;SDS011;15238;49.082;9.102;2022-08-07T12:51:11;0.95;;;0.30;;
27889;SDS011;15238;49.082;9.102;2022-08-07T12:53:23;0.63;;;0.20;;
27889;SDS011;15238;49.082;9.102;2022-08-07T12:57:57;1.05;;;0.40;;
27889;SDS011;15238;49.082;9.102;2022-08-07T12:59:59;1.00;;;0.30;;
27889;SDS011;15238;49.082;9.102;2022-08-07T13:02:16;0.73;;;0.20;;
27889;SDS011;15238;49.082;9.102;2022-08-07T13:05:02;0.70;;;0.30;;
27889;SDS011;15238;49.082;9.102;2022-08-07T13:17:16;0.30;;;0.22;;
27889;SDS011;15238;49.082;9.102;2022-08-07T13:19:27;1.05;;;0.43;;
27889;SDS011;15238;49.082;9.102;2022-08-07T13:21:51;0.40;;;0.25;;
27889;SDS011;15238;49.082;9.102;2022-08-07T13:24:09;2.10;;;0.20;;
27889;SDS011;15238;49.082;9.102;2022-08-07T13:26:29;4.78;;;0.52;;
27889;SDS011;15238;49.082;9.102;2022-08-07T13:28:36;1.30;;;0.32;;
27889;SDS011;15238;49.082;9.102;2022-08-07T13:30:51;0.40;;;0.28;;
27889;SDS011;15238;49.082;9.102;2022-08-07T13:33:00;0.68;;;0.30;;
27889;SDS011;15238;49.082;9.102;2022-08-07T13:35:23;2.25;;;0.30;;
27889;SDS011;15238;49.082;9.102;2022-08-07T13:37:31;0.70;;;0.30;;
27889;SDS011;15238;49.082;9.102;2022-08-07T13:39:58;0.20;;;0.20;;
27889;SDS011;15238;49.082;9.102;2022-08-07T13:42:22;0.45;;;0.20;;
27889;SDS011;15238;49.082;9.102;2022-08-07T13:44:25;0.30;;;0.20;;
27889;SDS011;15238;49.082;9.102;2022-08-07T13:46:30;1.20;;;0.28;;
27889;SDS011;15238;49.082;9.102;2022-08-07T13:48:33;1.27;;;0.25;;
27889;SDS011;15238;49.082;9.102;2022-08-07T13:50:39;0.40;;;0.32;;
27889;SDS011;15238;49.082;9.102;2022-08-07T13:52:42;0.85;;;0.30;;
27889;SDS011;15238;49.082;9.102;2022-08-07T13:54:45;1.60;;;0.50;;
27889;SDS011;15238;49.082;9.102;2022-08-07T13:56:46;0.57;;;0.20;;
27889;SDS011;15238;49.082;9.102;2022-08-07T13:58:47;0.30;;;0.30;;
27889;SDS011;15238;49.082;9.102;2022-08-07T14:01:07;0.85;;;0.30;;
27889;SDS011;15238;49.082;9.102;2022-08-07T14:03:11;1.95;;;0.20;;
27889;SDS011;15238;49.082;9.102;2022-08-07T14:05:13;0.15;;;0.13;;
27889;SDS011;15238;49.082;9.102;2022-08-07T14:07:19;0.25;;;0.20;;
27889;SDS011;15238;49.082;9.102;2022-08-07T14:09:27;0.27;;;0.27;;
27889;SDS011;15238;49.082;9.102;2022-08-07T14:11:29;0.70;;;0.30;;
27889;SDS011;15238;49.082;9.102;2022-08-07T14:13:35;0.30;;;0.30;;
27889;SDS011;15238;49.082;9.102;2022-08-07T14:15:40;0.20;;;0.20;;
27889;SDS011;15238;49.082;9.102;2022-08-07T14:17:42;0.38;;;0.30;;
27889;SDS011;15238;49.082;9.102;2022-08-07T14:21:55;1.05;;;0.50;;
27889;SDS011;15238;49.082;9.102;2022-08-07T14:24:04;2.65;;;0.30;;
27889;SDS011;15238;49.082;9.102;2022-08-07T14:26:11;0.65;;;0.20;;
27889;SDS011;15238;49.082;9.102;2022-08-07T14:28:14;3.08;;;0.28;;
27889;SDS011;15238;49.082;9.102;2022-08-07T14:30:16;1.27;;;0.20;;
27889;SDS011;15238;49.082;9.102;2022-08-07T14:32:17;0.75;;;0.40;;
27889;SDS011;15238;49.082;9.102;2022-08-07T14:34:19;0.65;;;0.30;;
27889;SDS011;15238;49.082;9.102;2022-08-07T14:36:24;0.95;;;0.40;;
27889;SDS011;15238;49.082;9.102;2022-08-07T14:38:26;1.60;;;0.40;;
27889;SDS011;15238;49.082;9.102;2022-08-07T14:40:29;1.42;;;0.30;;
27889;SDS011;15238;49.082;9.102;2022-08-07T14:42:32;1.38;;;0.30;;
27889;SDS011;15238;49.082;9.102;2022-08-07T14:44:36;0.55;;;0.50;;
27889;SDS011;15238;49.082;9.102;2022-08-07T14:46:38;3.80;;;0.47;;
27889;SDS011;15238;49.082;9.102;2022-08-07T14:48:41;0.60;;;0.28;;
27889;SDS011;15238;49.082;9.102;2022-08-07T14:50:46;0.38;;;0.30;;